NBL92 NZWN-YMHB
Flight info
| Callsign | NBL92 |
|---|---|
| Flight time | 2h 56m |
| Altitude | 34000 |
| Route | NZWN/16 N0437F340 ATVE2Q VANDA DCT KABIN M643 PECOB DCT IPLET IPLE7V YMHB/30 |
| Aircraft | B738/M-SDE2E3FGHIRWXY/LB1 |
Departure
| Time | 2026-04-21 23:04 |
|---|---|
| Airport | Wellington International Airport (NZWN) |
Arrival
| Time | 2026-04-22 02:00 |
|---|---|
| Airport | Hobart International Airport (YMHB) |
| Time | Latitude | Longitude | Altitude | Speed | Heading |
|---|---|---|---|---|---|
| 2026-04-21 23:03 | -41.31865 | 174.80746 | 52 ft | 0 kts | 183° |
| 2026-04-21 23:03 | -41.31873 | 174.80745 | 51 ft | 5 kts | 183° |
| 2026-04-21 23:03 | -41.32012 | 174.80736 | 49 ft | 53 kts | 183° |
| 2026-04-21 23:03 | -41.32647 | 174.80698 | 26 ft | 127 kts | 182° |
| 2026-04-21 23:04 | -41.33681 | 174.80640 | 426 ft | 161 kts | 184° |
| 2026-04-21 23:04 | -41.34867 | 174.80555 | 1013 ft | 185 kts | 184° |
| 2026-04-21 23:04 | -41.36188 | 174.80483 | 1856 ft | 186 kts | 180° |
| 2026-04-21 23:04 | -41.37459 | 174.80266 | 2792 ft | 188 kts | 192° |
| 2026-04-21 23:05 | -41.38703 | 174.79396 | 3149 ft | 219 kts | 209° |
| 2026-04-21 23:05 | -41.40045 | 174.78465 | 3909 ft | 216 kts | 194° |
| 2026-04-21 23:05 | -41.41476 | 174.77769 | 4694 ft | 224 kts | 195° |
| 2026-04-21 23:05 | -41.42969 | 174.76983 | 5355 ft | 235 kts | 196° |
| 2026-04-21 23:06 | -41.44478 | 174.76158 | 6277 ft | 234 kts | 196° |
| 2026-04-21 23:06 | -41.46016 | 174.75310 | 6966 ft | 241 kts | 197° |
| 2026-04-21 23:06 | -41.47574 | 174.74446 | 7765 ft | 242 kts | 195° |
| 2026-04-21 23:06 | -41.49140 | 174.73576 | 8543 ft | 247 kts | 198° |
| 2026-04-21 23:07 | -41.50569 | 174.72184 | 9245 ft | 266 kts | 222° |
| 2026-04-21 23:07 | -41.51531 | 174.69983 | 9956 ft | 286 kts | 242° |
| 2026-04-21 23:07 | -41.52130 | 174.67376 | 10413 ft | 305 kts | 246° |
| 2026-04-21 23:07 | -41.52687 | 174.64563 | 10555 ft | 329 kts | 246° |
| 2026-04-21 23:08 | -41.53267 | 174.61501 | 10743 ft | 351 kts | 248° |
| 2026-04-21 23:08 | -41.53872 | 174.58251 | 11018 ft | 368 kts | 250° |
| 2026-04-21 23:08 | -41.54489 | 174.54899 | 11602 ft | 374 kts | 248° |
| 2026-04-21 23:08 | -41.55119 | 174.51515 | 12320 ft | 376 kts | 249° |
| 2026-04-21 23:09 | -41.55756 | 174.48126 | 13066 ft | 378 kts | 249° |
| 2026-04-21 23:09 | -41.56410 | 174.44696 | 13677 ft | 383 kts | 249° |
| 2026-04-21 23:09 | -41.57068 | 174.41236 | 14356 ft | 385 kts | 253° |
| 2026-04-21 23:09 | -41.57722 | 174.37783 | 15087 ft | 383 kts | 252° |
| 2026-04-21 23:10 | -41.58376 | 174.34340 | 15818 ft | 382 kts | 252° |
| 2026-04-21 23:10 | -41.59035 | 174.30895 | 16437 ft | 384 kts | 253° |
| 2026-04-21 23:10 | -41.59697 | 174.27439 | 17116 ft | 383 kts | 251° |
| 2026-04-21 23:10 | -41.60355 | 174.23997 | 17803 ft | 383 kts | 252° |
| 2026-04-21 23:11 | -41.61016 | 174.20532 | 18403 ft | 386 kts | 252° |
| 2026-04-21 23:11 | -41.61674 | 174.17061 | 19049 ft | 383 kts | 252° |
| 2026-04-21 23:11 | -41.62329 | 174.13611 | 19647 ft | 384 kts | 254° |
| 2026-04-21 23:11 | -41.62989 | 174.10125 | 20085 ft | 388 kts | 254° |
| 2026-04-21 23:12 | -41.63653 | 174.06613 | 20537 ft | 392 kts | 254° |
| 2026-04-21 23:12 | -41.64325 | 174.03063 | 20960 ft | 396 kts | 255° |
| 2026-04-21 23:12 | -41.65000 | 173.99486 | 21515 ft | 396 kts | 255° |
| 2026-04-21 23:12 | -41.65673 | 173.95910 | 22024 ft | 398 kts | 255° |
| 2026-04-21 23:13 | -41.66353 | 173.92291 | 22364 ft | 404 kts | 255° |
| 2026-04-21 23:13 | -41.67036 | 173.88641 | 22789 ft | 407 kts | 256° |
| 2026-04-21 23:13 | -41.67729 | 173.84934 | 22990 ft | 415 kts | 256° |
| 2026-04-21 23:13 | -41.68431 | 173.81175 | 23452 ft | 417 kts | 256° |
| 2026-04-21 23:14 | -41.69135 | 173.77397 | 23759 ft | 422 kts | 257° |
| 2026-04-21 23:14 | -41.69848 | 173.73566 | 24095 ft | 425 kts | 257° |
| 2026-04-21 23:14 | -41.70559 | 173.69737 | 24534 ft | 424 kts | 257° |
| 2026-04-21 23:14 | -41.71273 | 173.65888 | 24824 ft | 428 kts | 256° |
| 2026-04-21 23:15 | -41.71980 | 173.62063 | 25187 ft | 429 kts | 257° |
| 2026-04-21 23:15 | -41.72707 | 173.58122 | 25487 ft | 432 kts | 257° |
| 2026-04-21 23:15 | -41.73418 | 173.54262 | 25815 ft | 433 kts | 257° |
| 2026-04-21 23:15 | -41.74138 | 173.50343 | 26230 ft | 433 kts | 257° |
| 2026-04-21 23:16 | -41.74855 | 173.46437 | 26665 ft | 431 kts | 257° |
| 2026-04-21 23:16 | -41.75566 | 173.42550 | 27184 ft | 428 kts | 257° |
| 2026-04-21 23:16 | -41.76278 | 173.38656 | 27458 ft | 432 kts | 257° |
| 2026-04-21 23:16 | -41.76991 | 173.34743 | 27784 ft | 433 kts | 257° |
| 2026-04-21 23:17 | -41.77706 | 173.30809 | 27999 ft | 437 kts | 257° |
| 2026-04-21 23:17 | -41.78425 | 173.26844 | 28320 ft | 438 kts | 257° |
| 2026-04-21 23:17 | -41.79144 | 173.22878 | 28661 ft | 438 kts | 257° |
| 2026-04-21 23:17 | -41.79849 | 173.18976 | 29166 ft | 434 kts | 257° |
| 2026-04-21 23:18 | -41.80549 | 173.15099 | 29899 ft | 425 kts | 257° |
| 2026-04-21 23:18 | -41.81239 | 173.11264 | 30345 ft | 423 kts | 257° |
| 2026-04-21 23:18 | -41.81930 | 173.07416 | 30627 ft | 424 kts | 257° |
| 2026-04-21 23:18 | -41.82619 | 173.03567 | 30786 ft | 427 kts | 257° |
| 2026-04-21 23:19 | -41.83312 | 172.99696 | 31090 ft | 426 kts | 256° |
| 2026-04-21 23:19 | -41.84001 | 172.95837 | 31406 ft | 425 kts | 256° |
| 2026-04-21 23:19 | -41.84692 | 172.91958 | 31582 ft | 428 kts | 256° |
| 2026-04-21 23:19 | -41.85377 | 172.88100 | 32044 ft | 423 kts | 256° |
| 2026-04-21 23:20 | -41.86060 | 172.84252 | 32267 ft | 425 kts | 256° |
| 2026-04-21 23:20 | -41.86743 | 172.80393 | 32523 ft | 425 kts | 256° |
| 2026-04-21 23:20 | -41.87426 | 172.76529 | 32708 ft | 427 kts | 256° |
| 2026-04-21 23:20 | -41.88110 | 172.72644 | 32928 ft | 428 kts | 256° |
| 2026-04-21 23:21 | -41.88786 | 172.68804 | 33168 ft | 429 kts | 256° |
| 2026-04-21 23:21 | -41.89480 | 172.64849 | 33363 ft | 430 kts | 256° |
| 2026-04-21 23:21 | -41.90150 | 172.61021 | 33851 ft | 424 kts | 256° |
| 2026-04-21 23:21 | -41.90821 | 172.57177 | 34155 ft | 423 kts | 256° |
| 2026-04-21 23:22 | -41.92165 | 172.49453 | 34245 ft | 425 kts | 256° |
| 2026-04-21 23:22 | -41.93516 | 172.41670 | 34243 ft | 431 kts | 256° |
| 2026-04-21 23:23 | -41.94882 | 172.33768 | 34274 ft | 435 kts | 256° |
| 2026-04-21 23:23 | -41.96241 | 172.25858 | 34253 ft | 435 kts | 256° |
| 2026-04-21 23:24 | -41.97593 | 172.17953 | 34232 ft | 433 kts | 256° |
| 2026-04-21 23:24 | -41.98939 | 172.10063 | 34225 ft | 435 kts | 256° |
| 2026-04-21 23:25 | -42.00276 | 172.02194 | 34217 ft | 433 kts | 257° |
| 2026-04-21 23:25 | -42.01617 | 171.94252 | 34231 ft | 432 kts | 257° |
| 2026-04-21 23:26 | -42.02930 | 171.86436 | 34245 ft | 430 kts | 257° |
| 2026-04-21 23:26 | -42.04242 | 171.78601 | 34244 ft | 429 kts | 257° |
| 2026-04-21 23:27 | -42.05549 | 171.70754 | 34252 ft | 432 kts | 257° |
| 2026-04-21 23:27 | -42.06870 | 171.62793 | 34227 ft | 434 kts | 257° |
| 2026-04-21 23:28 | -42.08169 | 171.54930 | 34231 ft | 432 kts | 257° |
| 2026-04-21 23:28 | -42.09470 | 171.47019 | 34235 ft | 433 kts | 257° |
| 2026-04-21 23:29 | -42.10554 | 171.40397 | 34254 ft | 439 kts | 257° |
| 2026-04-21 23:29 | -42.11866 | 171.32340 | 34246 ft | 442 kts | 257° |
| 2026-04-21 23:30 | -42.13180 | 171.24236 | 34238 ft | 443 kts | 256° |
| 2026-04-21 23:30 | -42.14489 | 171.16132 | 34250 ft | 443 kts | 256° |
| 2026-04-21 23:31 | -42.15794 | 171.08010 | 34251 ft | 443 kts | 256° |
| 2026-04-21 23:31 | -42.17090 | 170.99907 | 34253 ft | 442 kts | 256° |
| 2026-04-21 23:32 | -42.18380 | 170.91800 | 34252 ft | 441 kts | 256° |
| 2026-04-21 23:32 | -42.19660 | 170.83716 | 34248 ft | 441 kts | 256° |
| 2026-04-21 23:33 | -42.20930 | 170.75665 | 34258 ft | 442 kts | 256° |
| 2026-04-21 23:33 | -42.22202 | 170.67552 | 34261 ft | 443 kts | 256° |
| 2026-04-21 23:34 | -42.23475 | 170.59395 | 34266 ft | 445 kts | 255° |
| 2026-04-21 23:34 | -42.24746 | 170.51212 | 34240 ft | 447 kts | 254° |
| 2026-04-21 23:35 | -42.26021 | 170.42969 | 34271 ft | 450 kts | 254° |
| 2026-04-21 23:35 | -42.27295 | 170.34681 | 34279 ft | 453 kts | 254° |
| 2026-04-21 23:36 | -42.28574 | 170.26323 | 34265 ft | 455 kts | 254° |
| 2026-04-21 23:36 | -42.29850 | 170.17934 | 34256 ft | 457 kts | 254° |
| 2026-04-21 23:37 | -42.31124 | 170.09514 | 34266 ft | 458 kts | 254° |
| 2026-04-21 23:37 | -42.32395 | 170.01074 | 34252 ft | 459 kts | 254° |
| 2026-04-21 23:38 | -42.33663 | 169.92609 | 34269 ft | 459 kts | 254° |
| 2026-04-21 23:38 | -42.34922 | 169.84157 | 34272 ft | 458 kts | 254° |
| 2026-04-21 23:39 | -42.36174 | 169.75704 | 34259 ft | 457 kts | 254° |
| 2026-04-21 23:39 | -42.37416 | 169.67280 | 34262 ft | 457 kts | 254° |
| 2026-04-21 23:40 | -42.38650 | 169.58868 | 34249 ft | 456 kts | 254° |
| 2026-04-21 23:40 | -42.39877 | 169.50452 | 34250 ft | 455 kts | 254° |
| 2026-04-21 23:41 | -42.41096 | 169.42056 | 34240 ft | 455 kts | 254° |
| 2026-04-21 23:41 | -42.41868 | 169.37930 | 34245 ft | 448 kts | 243° |
| 2026-04-21 23:41 | -42.43287 | 169.34246 | 34266 ft | 437 kts | 230° |
| 2026-04-21 23:42 | -42.45192 | 169.31103 | 34250 ft | 430 kts | 219° |
| 2026-04-21 23:42 | -42.47480 | 169.28543 | 34271 ft | 425 kts | 213° |
| 2026-04-21 23:42 | -42.52172 | 169.23622 | 34263 ft | 426 kts | 213° |
| 2026-04-21 23:43 | -42.56813 | 169.18700 | 34254 ft | 426 kts | 213° |
| 2026-04-21 23:43 | -42.61491 | 169.13678 | 34253 ft | 426 kts | 213° |
| 2026-04-21 23:44 | -42.66126 | 169.08675 | 34257 ft | 424 kts | 213° |
| 2026-04-21 23:44 | -42.70706 | 169.03720 | 34233 ft | 423 kts | 213° |
| 2026-04-21 23:45 | -42.77603 | 168.96242 | 34257 ft | 422 kts | 213° |
| 2026-04-21 23:46 | -42.82194 | 168.91254 | 34261 ft | 423 kts | 213° |
| 2026-04-21 23:46 | -42.86790 | 168.86250 | 34263 ft | 423 kts | 213° |
| 2026-04-21 23:47 | -42.91403 | 168.81218 | 34253 ft | 425 kts | 213° |
| 2026-04-21 23:47 | -42.96030 | 168.76161 | 34263 ft | 428 kts | 213° |
| 2026-04-21 23:48 | -43.00697 | 168.71048 | 34268 ft | 431 kts | 213° |
| 2026-04-21 23:48 | -43.05398 | 168.65887 | 34260 ft | 434 kts | 213° |
| 2026-04-21 23:49 | -43.10121 | 168.60693 | 34265 ft | 437 kts | 212° |
| 2026-04-21 23:49 | -43.14312 | 168.54604 | 34280 ft | 459 kts | 235° |
| 2026-04-21 23:49 | -43.15535 | 168.50437 | 34250 ft | 474 kts | 251° |
| 2026-04-21 23:50 | -43.16007 | 168.45988 | 34295 ft | 480 kts | 258° |
| 2026-04-21 23:50 | -43.16620 | 168.36852 | 34271 ft | 483 kts | 259° |
| 2026-04-21 23:51 | -43.17234 | 168.27698 | 34251 ft | 483 kts | 258° |
| 2026-04-21 23:51 | -43.17899 | 168.18545 | 34258 ft | 482 kts | 258° |
| 2026-04-21 23:52 | -43.18581 | 168.09416 | 34270 ft | 482 kts | 258° |
| 2026-04-21 23:52 | -43.19260 | 168.00279 | 34270 ft | 481 kts | 258° |
| 2026-04-21 23:53 | -43.19928 | 167.91164 | 34259 ft | 481 kts | 258° |
| 2026-04-21 23:53 | -43.20588 | 167.82035 | 34271 ft | 481 kts | 258° |
| 2026-04-21 23:54 | -43.21241 | 167.72901 | 34281 ft | 482 kts | 258° |
| 2026-04-21 23:54 | -43.21887 | 167.63743 | 34276 ft | 484 kts | 258° |
| 2026-04-21 23:55 | -43.22530 | 167.54542 | 34264 ft | 485 kts | 258° |
| 2026-04-21 23:55 | -43.23165 | 167.45331 | 34280 ft | 486 kts | 258° |
| 2026-04-21 23:56 | -43.23796 | 167.36075 | 34277 ft | 488 kts | 258° |
| 2026-04-21 23:56 | -43.24420 | 167.26807 | 34280 ft | 489 kts | 258° |
| 2026-04-21 23:57 | -43.25037 | 167.17521 | 34267 ft | 489 kts | 259° |
| 2026-04-21 23:57 | -43.25644 | 167.08277 | 34273 ft | 489 kts | 259° |
| 2026-04-21 23:58 | -43.26249 | 166.98974 | 34271 ft | 489 kts | 259° |
| 2026-04-21 23:58 | -43.26843 | 166.89693 | 34277 ft | 488 kts | 259° |
| 2026-04-21 23:59 | -43.27426 | 166.80429 | 34270 ft | 487 kts | 259° |
| 2026-04-21 23:59 | -43.28001 | 166.71175 | 34274 ft | 485 kts | 259° |
| 2026-04-22 00:00 | -43.28568 | 166.61944 | 34277 ft | 484 kts | 259° |
| 2026-04-22 00:00 | -43.29126 | 166.52747 | 34283 ft | 483 kts | 259° |
| 2026-04-22 00:01 | -43.29675 | 166.43554 | 34276 ft | 482 kts | 259° |
| 2026-04-22 00:01 | -43.30216 | 166.34393 | 34280 ft | 481 kts | 259° |
| 2026-04-22 00:02 | -43.30750 | 166.25237 | 34287 ft | 481 kts | 259° |
| 2026-04-22 00:02 | -43.31276 | 166.16077 | 34281 ft | 482 kts | 259° |
| 2026-04-22 00:03 | -43.31792 | 166.06958 | 34284 ft | 482 kts | 259° |
| 2026-04-22 00:03 | -43.32305 | 165.97768 | 34291 ft | 482 kts | 259° |
| 2026-04-22 00:04 | -43.32810 | 165.88576 | 34291 ft | 483 kts | 259° |
| 2026-04-22 00:04 | -43.33309 | 165.79365 | 34292 ft | 484 kts | 260° |
| 2026-04-22 00:05 | -43.33802 | 165.70128 | 34289 ft | 484 kts | 260° |
| 2026-04-22 00:05 | -43.34287 | 165.60885 | 34293 ft | 485 kts | 260° |
| 2026-04-22 00:06 | -43.34765 | 165.51650 | 34292 ft | 485 kts | 260° |
| 2026-04-22 00:06 | -43.35236 | 165.42395 | 34293 ft | 485 kts | 260° |
| 2026-04-22 00:07 | -43.35699 | 165.33153 | 34296 ft | 485 kts | 260° |
| 2026-04-22 00:07 | -43.36155 | 165.23899 | 34295 ft | 485 kts | 260° |
| 2026-04-22 00:08 | -43.36599 | 165.14725 | 34295 ft | 484 kts | 260° |
| 2026-04-22 00:08 | -43.37039 | 165.05495 | 34286 ft | 484 kts | 261° |
| 2026-04-22 00:09 | -43.37471 | 164.96275 | 34296 ft | 483 kts | 261° |
| 2026-04-22 00:09 | -43.37896 | 164.87046 | 34305 ft | 483 kts | 261° |
| 2026-04-22 00:10 | -43.38313 | 164.77820 | 34305 ft | 483 kts | 261° |
| 2026-04-22 00:10 | -43.38723 | 164.68610 | 34271 ft | 483 kts | 261° |
| 2026-04-22 00:11 | -43.39123 | 164.59415 | 34294 ft | 482 kts | 261° |
| 2026-04-22 00:11 | -43.39518 | 164.50209 | 34317 ft | 482 kts | 261° |
| 2026-04-22 00:12 | -43.39904 | 164.41020 | 34312 ft | 482 kts | 261° |
| 2026-04-22 00:12 | -43.40219 | 164.33376 | 34300 ft | 481 kts | 261° |
| 2026-04-22 00:13 | -43.40591 | 164.24199 | 34311 ft | 481 kts | 261° |
| 2026-04-22 00:13 | -43.40956 | 164.15014 | 34318 ft | 480 kts | 261° |
| 2026-04-22 00:14 | -43.41312 | 164.05848 | 34321 ft | 480 kts | 261° |
| 2026-04-22 00:14 | -43.41662 | 163.96683 | 34309 ft | 480 kts | 261° |
| 2026-04-22 00:15 | -43.42004 | 163.87512 | 34328 ft | 479 kts | 262° |
| 2026-04-22 00:15 | -43.42338 | 163.78357 | 34333 ft | 479 kts | 262° |
| 2026-04-22 00:16 | -43.42665 | 163.69200 | 34333 ft | 479 kts | 262° |
| 2026-04-22 00:16 | -43.42986 | 163.60028 | 34314 ft | 479 kts | 262° |
| 2026-04-22 00:17 | -43.43297 | 163.50885 | 34335 ft | 479 kts | 262° |
| 2026-04-22 00:17 | -43.43601 | 163.41748 | 34342 ft | 478 kts | 262° |
| 2026-04-22 00:18 | -43.43899 | 163.32603 | 34341 ft | 478 kts | 262° |
| 2026-04-22 00:18 | -43.44188 | 163.23480 | 34341 ft | 477 kts | 262° |
| 2026-04-22 00:19 | -43.44470 | 163.14351 | 34350 ft | 477 kts | 262° |
| 2026-04-22 00:19 | -43.44744 | 163.05304 | 34353 ft | 477 kts | 262° |
| 2026-04-22 00:20 | -43.45016 | 162.96195 | 34356 ft | 476 kts | 262° |
| 2026-04-22 00:20 | -43.45306 | 162.87083 | 34352 ft | 476 kts | 262° |
| 2026-04-22 00:21 | -43.45594 | 162.77989 | 34363 ft | 476 kts | 262° |
| 2026-04-22 00:21 | -43.45874 | 162.68891 | 34363 ft | 476 kts | 262° |
| 2026-04-22 00:22 | -43.46144 | 162.59771 | 34351 ft | 476 kts | 263° |
| 2026-04-22 00:22 | -43.46406 | 162.50667 | 34366 ft | 476 kts | 263° |
| 2026-04-22 00:23 | -43.46661 | 162.41549 | 34373 ft | 476 kts | 263° |
| 2026-04-22 00:23 | -43.46909 | 162.32443 | 34377 ft | 476 kts | 263° |
| 2026-04-22 00:24 | -43.47150 | 162.23335 | 34361 ft | 476 kts | 263° |
| 2026-04-22 00:24 | -43.47383 | 162.14218 | 34376 ft | 476 kts | 263° |
| 2026-04-22 00:25 | -43.47609 | 162.05122 | 34386 ft | 476 kts | 263° |
| 2026-04-22 00:25 | -43.47827 | 161.96027 | 34388 ft | 475 kts | 263° |
| 2026-04-22 00:26 | -43.48039 | 161.86918 | 34391 ft | 475 kts | 263° |
| 2026-04-22 00:26 | -43.48243 | 161.77825 | 34383 ft | 475 kts | 263° |
| 2026-04-22 00:27 | -43.48440 | 161.68717 | 34384 ft | 475 kts | 263° |
| 2026-04-22 00:27 | -43.48628 | 161.59683 | 34383 ft | 475 kts | 263° |
| 2026-04-22 00:28 | -43.48811 | 161.50590 | 34390 ft | 475 kts | 264° |
| 2026-04-22 00:28 | -43.48986 | 161.41489 | 34394 ft | 475 kts | 264° |
| 2026-04-22 00:29 | -43.49154 | 161.32405 | 34398 ft | 475 kts | 264° |
| 2026-04-22 00:29 | -43.49314 | 161.23318 | 34399 ft | 475 kts | 264° |
| 2026-04-22 00:30 | -43.49468 | 161.14217 | 34392 ft | 475 kts | 264° |
| 2026-04-22 00:30 | -43.49614 | 161.05135 | 34407 ft | 474 kts | 264° |
| 2026-04-22 00:31 | -43.49753 | 160.96055 | 34404 ft | 474 kts | 264° |
| 2026-04-22 00:31 | -43.49885 | 160.86959 | 34408 ft | 474 kts | 264° |
| 2026-04-22 00:32 | -43.50009 | 160.77878 | 34391 ft | 474 kts | 264° |
| 2026-04-22 00:32 | -43.50126 | 160.68847 | 34412 ft | 474 kts | 264° |
| 2026-04-22 00:33 | -43.50236 | 160.59774 | 34417 ft | 474 kts | 265° |
| 2026-04-22 00:33 | -43.50339 | 160.50685 | 34399 ft | 474 kts | 265° |
| 2026-04-22 00:34 | -43.50435 | 160.41613 | 34419 ft | 474 kts | 265° |
| 2026-04-22 00:34 | -43.50523 | 160.32544 | 34407 ft | 474 kts | 265° |
| 2026-04-22 00:35 | -43.50605 | 160.23462 | 34424 ft | 474 kts | 265° |
| 2026-04-22 00:35 | -43.50679 | 160.14395 | 34415 ft | 474 kts | 265° |
| 2026-04-22 00:36 | -43.50746 | 160.05310 | 34417 ft | 474 kts | 265° |
| 2026-04-22 00:36 | -43.50806 | 159.96240 | 34426 ft | 474 kts | 265° |
| 2026-04-22 00:37 | -43.50859 | 159.87161 | 34431 ft | 473 kts | 265° |
| 2026-04-22 00:37 | -43.50904 | 159.78100 | 34427 ft | 473 kts | 265° |
| 2026-04-22 00:38 | -43.50942 | 159.69040 | 34432 ft | 473 kts | 266° |
| 2026-04-22 00:38 | -43.50974 | 159.59983 | 34432 ft | 473 kts | 266° |
| 2026-04-22 00:39 | -43.50997 | 159.50922 | 34432 ft | 472 kts | 266° |
| 2026-04-22 00:39 | -43.51014 | 159.41889 | 34438 ft | 471 kts | 266° |
| 2026-04-22 00:40 | -43.51024 | 159.32855 | 34433 ft | 471 kts | 266° |
| 2026-04-22 00:40 | -43.51026 | 159.23845 | 34430 ft | 470 kts | 266° |
| 2026-04-22 00:41 | -43.51022 | 159.14848 | 34440 ft | 470 kts | 266° |
| 2026-04-22 00:41 | -43.51010 | 159.05845 | 34444 ft | 469 kts | 266° |
| 2026-04-22 00:42 | -43.50991 | 158.96865 | 34448 ft | 469 kts | 267° |
| 2026-04-22 00:42 | -43.50966 | 158.87888 | 34444 ft | 469 kts | 267° |
| 2026-04-22 00:43 | -43.50934 | 158.78962 | 34439 ft | 468 kts | 267° |
| 2026-04-22 00:43 | -43.50894 | 158.69984 | 34445 ft | 468 kts | 267° |
| 2026-04-22 00:44 | -43.50847 | 158.61024 | 34448 ft | 468 kts | 267° |
| 2026-04-22 00:44 | -43.50794 | 158.52048 | 34447 ft | 468 kts | 267° |
| 2026-04-22 00:45 | -43.50733 | 158.43088 | 34439 ft | 468 kts | 268° |
| 2026-04-22 00:45 | -43.50666 | 158.34119 | 34448 ft | 468 kts | 268° |
| 2026-04-22 00:46 | -43.50591 | 158.25168 | 34453 ft | 468 kts | 268° |
| 2026-04-22 00:46 | -43.50510 | 158.16261 | 34453 ft | 468 kts | 268° |
| 2026-04-22 00:47 | -43.50422 | 158.07310 | 34456 ft | 468 kts | 268° |
| 2026-04-22 00:47 | -43.50326 | 157.98342 | 34456 ft | 468 kts | 268° |
| 2026-04-22 00:48 | -43.50224 | 157.89388 | 34455 ft | 468 kts | 268° |
| 2026-04-22 00:48 | -43.50114 | 157.80419 | 34456 ft | 468 kts | 268° |
| 2026-04-22 00:49 | -43.49997 | 157.71448 | 34458 ft | 468 kts | 268° |
| 2026-04-22 00:49 | -43.49874 | 157.62495 | 34454 ft | 468 kts | 268° |
| 2026-04-22 00:50 | -43.49743 | 157.53533 | 34459 ft | 467 kts | 268° |
| 2026-04-22 00:50 | -43.49606 | 157.44573 | 34447 ft | 467 kts | 268° |
| 2026-04-22 00:51 | -43.49462 | 157.35633 | 34458 ft | 467 kts | 268° |
| 2026-04-22 00:51 | -43.49311 | 157.26746 | 34452 ft | 467 kts | 269° |
| 2026-04-22 00:52 | -43.49153 | 157.17824 | 34461 ft | 466 kts | 269° |
| 2026-04-22 00:52 | -43.48989 | 157.08909 | 34460 ft | 466 kts | 269° |
| 2026-04-22 00:53 | -43.48817 | 156.99987 | 34464 ft | 465 kts | 269° |
| 2026-04-22 00:53 | -43.48639 | 156.91085 | 34447 ft | 465 kts | 269° |
| 2026-04-22 00:54 | -43.48454 | 156.82194 | 34460 ft | 464 kts | 269° |
| 2026-04-22 00:54 | -43.48262 | 156.73296 | 34471 ft | 464 kts | 269° |
| 2026-04-22 00:55 | -43.48064 | 156.64403 | 34461 ft | 464 kts | 269° |
| 2026-04-22 00:55 | -43.47753 | 156.51087 | 34457 ft | 464 kts | 269° |
| 2026-04-22 00:56 | -43.47538 | 156.42222 | 34455 ft | 463 kts | 269° |
| 2026-04-22 00:56 | -43.47354 | 156.34851 | 34461 ft | 463 kts | 269° |
| 2026-04-22 00:57 | -43.47126 | 156.25999 | 34463 ft | 463 kts | 269° |
| 2026-04-22 00:57 | -43.46851 | 156.15650 | 34470 ft | 463 kts | 269° |
| 2026-04-22 00:58 | -43.46650 | 156.08294 | 34456 ft | 462 kts | 269° |
| 2026-04-22 00:58 | -43.46403 | 155.99463 | 34463 ft | 462 kts | 270° |
| 2026-04-22 00:59 | -43.46148 | 155.90623 | 34464 ft | 462 kts | 270° |
| 2026-04-22 00:59 | -43.45888 | 155.81801 | 34466 ft | 461 kts | 270° |
| 2026-04-22 01:00 | -43.45619 | 155.72968 | 34460 ft | 461 kts | 270° |
| 2026-04-22 01:00 | -43.45345 | 155.64157 | 34467 ft | 461 kts | 270° |
| 2026-04-22 01:01 | -43.45066 | 155.55393 | 34465 ft | 461 kts | 270° |
| 2026-04-22 01:01 | -43.44779 | 155.46587 | 34463 ft | 461 kts | 270° |
| 2026-04-22 01:02 | -43.44483 | 155.37725 | 34462 ft | 461 kts | 270° |
| 2026-04-22 01:02 | -43.44182 | 155.28934 | 34462 ft | 460 kts | 270° |
| 2026-04-22 01:03 | -43.43876 | 155.20200 | 34458 ft | 459 kts | 270° |
| 2026-04-22 01:03 | -43.43563 | 155.11424 | 34465 ft | 458 kts | 270° |
| 2026-04-22 01:04 | -43.43244 | 155.02676 | 34469 ft | 458 kts | 270° |
| 2026-04-22 01:04 | -43.42918 | 154.93942 | 34462 ft | 457 kts | 270° |
| 2026-04-22 01:05 | -43.42586 | 154.85211 | 34467 ft | 456 kts | 270° |
| 2026-04-22 01:05 | -43.42249 | 154.76506 | 34459 ft | 456 kts | 271° |
| 2026-04-22 01:06 | -43.41904 | 154.67796 | 34456 ft | 455 kts | 271° |
| 2026-04-22 01:06 | -43.41554 | 154.59105 | 34447 ft | 455 kts | 271° |
| 2026-04-22 01:07 | -43.41197 | 154.50423 | 34456 ft | 455 kts | 271° |
| 2026-04-22 01:07 | -43.40834 | 154.41734 | 34461 ft | 454 kts | 271° |
| 2026-04-22 01:08 | -43.40465 | 154.33065 | 34463 ft | 454 kts | 271° |
| 2026-04-22 01:08 | -43.40091 | 154.24446 | 34460 ft | 454 kts | 271° |
| 2026-04-22 01:09 | -43.39709 | 154.15788 | 34463 ft | 454 kts | 271° |
| 2026-04-22 01:09 | -43.39321 | 154.07134 | 34458 ft | 454 kts | 271° |
| 2026-04-22 01:10 | -43.38925 | 153.98470 | 34457 ft | 453 kts | 271° |
| 2026-04-22 01:10 | -43.38524 | 153.89825 | 34458 ft | 453 kts | 271° |
| 2026-04-22 01:11 | -43.38116 | 153.81180 | 34447 ft | 453 kts | 271° |
| 2026-04-22 01:11 | -43.37702 | 153.72526 | 34455 ft | 453 kts | 271° |
| 2026-04-22 01:12 | -43.37281 | 153.63890 | 34455 ft | 453 kts | 271° |
| 2026-04-22 01:12 | -43.36854 | 153.55240 | 34456 ft | 453 kts | 271° |
| 2026-04-22 01:13 | -43.36420 | 153.46592 | 34452 ft | 453 kts | 272° |
| 2026-04-22 01:13 | -43.35980 | 153.37961 | 34454 ft | 453 kts | 272° |
| 2026-04-22 01:14 | -43.35536 | 153.29382 | 34454 ft | 452 kts | 272° |
| 2026-04-22 01:14 | -43.35083 | 153.20752 | 34453 ft | 452 kts | 272° |
| 2026-04-22 01:15 | -43.34625 | 153.12141 | 34452 ft | 452 kts | 272° |
| 2026-04-22 01:15 | -43.34161 | 153.03537 | 34442 ft | 452 kts | 272° |
| 2026-04-22 01:16 | -43.33690 | 152.94941 | 34450 ft | 451 kts | 272° |
| 2026-04-22 01:16 | -43.33213 | 152.86350 | 34450 ft | 451 kts | 272° |
| 2026-04-22 01:17 | -43.32729 | 152.77736 | 34448 ft | 451 kts | 272° |
| 2026-04-22 01:17 | -43.32238 | 152.69138 | 34448 ft | 451 kts | 272° |
| 2026-04-22 01:18 | -43.31742 | 152.60555 | 34446 ft | 451 kts | 272° |
| 2026-04-22 01:18 | -43.31240 | 152.51980 | 34439 ft | 450 kts | 272° |
| 2026-04-22 01:19 | -43.30732 | 152.43411 | 34440 ft | 451 kts | 272° |
| 2026-04-22 01:19 | -43.30217 | 152.34829 | 34442 ft | 450 kts | 273° |
| 2026-04-22 01:20 | -43.29699 | 152.26310 | 34428 ft | 450 kts | 273° |
| 2026-04-22 01:20 | -43.29172 | 152.17740 | 34440 ft | 450 kts | 273° |
| 2026-04-22 01:21 | -43.28638 | 152.09173 | 34430 ft | 450 kts | 273° |
| 2026-04-22 01:21 | -43.28097 | 152.00607 | 34440 ft | 450 kts | 273° |
| 2026-04-22 01:22 | -43.27551 | 151.92052 | 34435 ft | 450 kts | 273° |
| 2026-04-22 01:22 | -43.26999 | 151.83496 | 34425 ft | 450 kts | 273° |
| 2026-04-22 01:23 | -43.26440 | 151.74944 | 34430 ft | 450 kts | 273° |
| 2026-04-22 01:23 | -43.25875 | 151.66393 | 34425 ft | 450 kts | 273° |
| 2026-04-22 01:24 | -43.25303 | 151.57841 | 34429 ft | 450 kts | 273° |
| 2026-04-22 01:24 | -43.24725 | 151.49298 | 34417 ft | 450 kts | 274° |
| 2026-04-22 01:25 | -43.24141 | 151.40761 | 34423 ft | 449 kts | 273° |
| 2026-04-22 01:25 | -43.23552 | 151.32236 | 34414 ft | 449 kts | 274° |
| 2026-04-22 01:26 | -43.22961 | 151.23771 | 34408 ft | 448 kts | 274° |
| 2026-04-22 01:26 | -43.22360 | 151.15275 | 34390 ft | 448 kts | 273° |
| 2026-04-22 01:27 | -43.21754 | 151.06793 | 34394 ft | 446 kts | 274° |
| 2026-04-22 01:27 | -43.21144 | 150.98337 | 34407 ft | 445 kts | 274° |
| 2026-04-22 01:28 | -43.20531 | 150.89902 | 34402 ft | 444 kts | 274° |
| 2026-04-22 01:28 | -43.19908 | 150.81480 | 34408 ft | 444 kts | 274° |
| 2026-04-22 01:29 | -43.19282 | 150.73069 | 34386 ft | 444 kts | 274° |
| 2026-04-22 01:29 | -43.18655 | 150.64712 | 34388 ft | 443 kts | 275° |
| 2026-04-22 01:30 | -43.18018 | 150.56304 | 34395 ft | 443 kts | 275° |
| 2026-04-22 01:30 | -43.17372 | 150.47903 | 34386 ft | 444 kts | 275° |
| 2026-04-22 01:31 | -43.16724 | 150.39506 | 34380 ft | 443 kts | 274° |
| 2026-04-22 01:31 | -43.16618 | 150.38147 | 34384 ft | 443 kts | 275° |
| 2026-04-22 01:35 | -43.16200 | 150.32775 | 34383 ft | 444 kts | 275° |
| 2026-04-22 01:35 | -43.15539 | 150.24373 | 34179 ft | 446 kts | 275° |
| 2026-04-22 01:36 | -43.15208 | 150.20183 | 33589 ft | 448 kts | 275° |
| 2026-04-22 01:36 | -43.14867 | 150.15909 | 32929 ft | 445 kts | 275° |
| 2026-04-22 01:36 | -43.14530 | 150.11699 | 32241 ft | 445 kts | 276° |
| 2026-04-22 01:36 | -43.14191 | 150.07483 | 31538 ft | 445 kts | 276° |
| 2026-04-22 01:37 | -43.13855 | 150.03327 | 30989 ft | 443 kts | 276° |
| 2026-04-22 01:37 | -43.13513 | 149.99107 | 30484 ft | 438 kts | 277° |
| 2026-04-22 01:37 | -43.13177 | 149.94984 | 29919 ft | 434 kts | 277° |
| 2026-04-22 01:37 | -43.12846 | 149.90952 | 29396 ft | 429 kts | 277° |
| 2026-04-22 01:38 | -43.12515 | 149.86919 | 28904 ft | 423 kts | 278° |
| 2026-04-22 01:38 | -43.12187 | 149.82944 | 28411 ft | 418 kts | 278° |
| 2026-04-22 01:38 | -43.11860 | 149.79013 | 27901 ft | 414 kts | 277° |
| 2026-04-22 01:38 | -43.11535 | 149.75121 | 27423 ft | 409 kts | 278° |
| 2026-04-22 01:39 | -43.11213 | 149.71269 | 26926 ft | 406 kts | 278° |
| 2026-04-22 01:39 | -43.10892 | 149.67451 | 26446 ft | 403 kts | 278° |
| 2026-04-22 01:39 | -43.10572 | 149.63652 | 25979 ft | 399 kts | 278° |
| 2026-04-22 01:39 | -43.10256 | 149.59899 | 25519 ft | 396 kts | 279° |
| 2026-04-22 01:40 | -43.09937 | 149.56171 | 25040 ft | 393 kts | 279° |
| 2026-04-22 01:40 | -43.09623 | 149.52467 | 24578 ft | 390 kts | 279° |
| 2026-04-22 01:40 | -43.09308 | 149.48790 | 24122 ft | 388 kts | 279° |
| 2026-04-22 01:40 | -43.08997 | 149.45178 | 23612 ft | 386 kts | 279° |
| 2026-04-22 01:41 | -43.08682 | 149.41547 | 23094 ft | 383 kts | 280° |
| 2026-04-22 01:41 | -43.08371 | 149.37947 | 22616 ft | 380 kts | 279° |
| 2026-04-22 01:41 | -43.08061 | 149.34376 | 22148 ft | 376 kts | 279° |
| 2026-04-22 01:41 | -43.07752 | 149.30832 | 21689 ft | 373 kts | 280° |
| 2026-04-22 01:42 | -43.07444 | 149.27312 | 21240 ft | 371 kts | 281° |
| 2026-04-22 01:42 | -43.07139 | 149.23828 | 20801 ft | 367 kts | 281° |
| 2026-04-22 01:42 | -43.06937 | 149.21539 | 20510 ft | 365 kts | 281° |
| 2026-04-22 01:42 | -43.06631 | 149.18097 | 20064 ft | 363 kts | 281° |
| 2026-04-22 01:43 | -43.06329 | 149.14679 | 19633 ft | 360 kts | 281° |
| 2026-04-22 01:43 | -43.06026 | 149.11281 | 19194 ft | 358 kts | 281° |
| 2026-04-22 01:43 | -43.05725 | 149.07915 | 18762 ft | 356 kts | 281° |
| 2026-04-22 01:43 | -43.05423 | 149.04556 | 18287 ft | 354 kts | 281° |
| 2026-04-22 01:44 | -43.05123 | 149.01219 | 17818 ft | 352 kts | 282° |
| 2026-04-22 01:44 | -43.04825 | 148.97911 | 17382 ft | 349 kts | 282° |
| 2026-04-22 01:44 | -43.04526 | 148.94627 | 16929 ft | 346 kts | 281° |
| 2026-04-22 01:44 | -43.04234 | 148.91411 | 16510 ft | 344 kts | 281° |
| 2026-04-22 01:45 | -43.03940 | 148.88181 | 16102 ft | 341 kts | 281° |
| 2026-04-22 01:45 | -43.03647 | 148.84973 | 15685 ft | 339 kts | 281° |
| 2026-04-22 01:45 | -43.03355 | 148.81784 | 15274 ft | 337 kts | 282° |
| 2026-04-22 01:45 | -43.03062 | 148.78625 | 14853 ft | 335 kts | 281° |
| 2026-04-22 01:46 | -43.02770 | 148.75476 | 14453 ft | 333 kts | 282° |
| 2026-04-22 01:46 | -43.02482 | 148.72348 | 14034 ft | 331 kts | 282° |
| 2026-04-22 01:46 | -43.02197 | 148.69240 | 13591 ft | 328 kts | 282° |
| 2026-04-22 01:46 | -43.01911 | 148.66155 | 13171 ft | 325 kts | 282° |
| 2026-04-22 01:47 | -43.01629 | 148.63145 | 12776 ft | 321 kts | 281° |
| 2026-04-22 01:47 | -43.01342 | 148.60125 | 12365 ft | 321 kts | 281° |
| 2026-04-22 01:47 | -43.01060 | 148.57109 | 11963 ft | 320 kts | 280° |
| 2026-04-22 01:47 | -43.00780 | 148.54103 | 11577 ft | 317 kts | 281° |
| 2026-04-22 01:48 | -43.00498 | 148.51134 | 11182 ft | 315 kts | 280° |
| 2026-04-22 01:48 | -43.00220 | 148.48212 | 11012 ft | 306 kts | 278° |
| 2026-04-22 01:48 | -42.99951 | 148.45364 | 10889 ft | 300 kts | 278° |
| 2026-04-22 01:48 | -42.99683 | 148.42559 | 10766 ft | 296 kts | 278° |
| 2026-04-22 01:49 | -42.99417 | 148.39781 | 10471 ft | 296 kts | 278° |
| 2026-04-22 01:49 | -42.99156 | 148.37060 | 10267 ft | 281 kts | 279° |
| 2026-04-22 01:49 | -42.98909 | 148.34477 | 10117 ft | 269 kts | 278° |
| 2026-04-22 01:49 | -42.98674 | 148.32020 | 10016 ft | 252 kts | 278° |
| 2026-04-22 01:50 | -42.98451 | 148.29691 | 9775 ft | 243 kts | 278° |
| 2026-04-22 01:50 | -42.98231 | 148.27408 | 9502 ft | 245 kts | 278° |
| 2026-04-22 01:50 | -42.98006 | 148.25120 | 9296 ft | 242 kts | 278° |
| 2026-04-22 01:50 | -42.97786 | 148.22846 | 8990 ft | 243 kts | 277° |
| 2026-04-22 01:51 | -42.97562 | 148.20538 | 8726 ft | 246 kts | 277° |
| 2026-04-22 01:51 | -42.97338 | 148.18264 | 8498 ft | 244 kts | 277° |
| 2026-04-22 01:51 | -42.97116 | 148.15957 | 8217 ft | 246 kts | 277° |
| 2026-04-22 01:51 | -42.96888 | 148.13634 | 8017 ft | 241 kts | 276° |
| 2026-04-22 01:52 | -42.96669 | 148.11392 | 7736 ft | 240 kts | 276° |
| 2026-04-22 01:52 | -42.96448 | 148.09137 | 7477 ft | 239 kts | 276° |
| 2026-04-22 01:52 | -42.96227 | 148.06897 | 7231 ft | 237 kts | 277° |
| 2026-04-22 01:52 | -42.96007 | 148.04677 | 6972 ft | 235 kts | 277° |
| 2026-04-22 01:53 | -42.95789 | 148.02468 | 6723 ft | 235 kts | 277° |
| 2026-04-22 01:53 | -42.95569 | 148.00255 | 6470 ft | 234 kts | 277° |
| 2026-04-22 01:53 | -42.95353 | 147.98063 | 6221 ft | 229 kts | 276° |
| 2026-04-22 01:53 | -42.95148 | 147.95944 | 6062 ft | 225 kts | 277° |
| 2026-04-22 01:54 | -42.94932 | 147.93789 | 5772 ft | 232 kts | 278° |
| 2026-04-22 01:54 | -42.94712 | 147.91601 | 5533 ft | 233 kts | 277° |
| 2026-04-22 01:54 | -42.94495 | 147.89439 | 5404 ft | 227 kts | 277° |
| 2026-04-22 01:54 | -42.94287 | 147.87331 | 5286 ft | 223 kts | 277° |
| 2026-04-22 01:55 | -42.94089 | 147.85201 | 4991 ft | 230 kts | 277° |
| 2026-04-22 01:55 | -42.93899 | 147.83042 | 4720 ft | 229 kts | 277° |
| 2026-04-22 01:55 | -42.93720 | 147.80901 | 4411 ft | 229 kts | 277° |
| 2026-04-22 01:55 | -42.93545 | 147.78745 | 4124 ft | 227 kts | 277° |
| 2026-04-22 01:56 | -42.93385 | 147.76602 | 3830 ft | 226 kts | 276° |
| 2026-04-22 01:56 | -42.93240 | 147.74469 | 3553 ft | 225 kts | 277° |
| 2026-04-22 01:56 | -42.93107 | 147.72353 | 3264 ft | 222 kts | 277° |
| 2026-04-22 01:56 | -42.92984 | 147.70262 | 3009 ft | 221 kts | 277° |
| 2026-04-22 01:57 | -42.92875 | 147.68157 | 2754 ft | 224 kts | 277° |
| 2026-04-22 01:57 | -42.92781 | 147.66015 | 2499 ft | 228 kts | 277° |
| 2026-04-22 01:57 | -42.92576 | 147.63871 | 2227 ft | 226 kts | 295° |
| 2026-04-22 01:57 | -42.91700 | 147.62147 | 2007 ft | 220 kts | 315° |
| 2026-04-22 01:58 | -42.90650 | 147.60674 | 1710 ft | 212 kts | 317° |
| 2026-04-22 01:58 | -42.89627 | 147.59302 | 1415 ft | 198 kts | 316° |
| 2026-04-22 01:58 | -42.88690 | 147.58040 | 1189 ft | 181 kts | 316° |
| 2026-04-22 01:58 | -42.87854 | 147.56909 | 1013 ft | 161 kts | 319° |
| 2026-04-22 01:59 | -42.87087 | 147.55875 | 764 ft | 148 kts | 319° |
| 2026-04-22 01:59 | -42.86385 | 147.54930 | 619 ft | 138 kts | 319° |
| 2026-04-22 01:59 | -42.85685 | 147.53986 | 396 ft | 142 kts | 315° |
| 2026-04-22 01:59 | -42.84995 | 147.53043 | 197 ft | 141 kts | 317° |
| 2026-04-22 02:00 | -42.84302 | 147.52100 | 36 ft | 135 kts | 317° |
| 2026-04-22 02:00 | -42.83716 | 147.51315 | 21 ft | 91 kts | 315° |
| 2026-04-22 02:00 | -42.83450 | 147.50962 | 21 ft | 37 kts | 315° |
| 2026-04-22 02:00 | -42.83320 | 147.50751 | 21 ft | 25 kts | 287° |
| 2026-04-22 02:01 | -42.83382 | 147.50566 | 22 ft | 21 kts | 207° |
| 2026-04-22 02:01 | -42.83499 | 147.50649 | 21 ft | 16 kts | 135° |
| 2026-04-22 02:01 | -42.83601 | 147.50665 | 21 ft | 15 kts | 200° |
| 2026-04-22 02:01 | -42.83676 | 147.50718 | 23 ft | 12 kts | 134° |
| 2026-04-22 02:02 | -42.83753 | 147.50804 | 22 ft | 18 kts | 149° |
| 2026-04-22 02:02 | -42.83855 | 147.50892 | 22 ft | 19 kts | 135° |
| 2026-04-22 02:02 | -42.83914 | 147.50974 | 22 ft | 0 kts | 133° |